sensor_id;sensor_type;location;lat;lon;timestamp;P1;durP1;ratioP1;P2;durP2;ratioP2
77160;SDS011;66135;0.000;0.000;2023-07-13T00:02:00;1.02;;;0.30;;
77160;SDS011;66135;0.000;0.000;2023-07-13T00:04:25;1.00;;;0.40;;
77160;SDS011;66135;0.000;0.000;2023-07-13T00:06:51;0.70;;;0.20;;
77160;SDS011;66135;0.000;0.000;2023-07-13T00:09:17;1.00;;;0.10;;
77160;SDS011;66135;0.000;0.000;2023-07-13T00:11:44;2.47;;;0.30;;
77160;SDS011;66135;0.000;0.000;2023-07-13T00:14:12;1.23;;;0.30;;
77160;SDS011;66135;0.000;0.000;2023-07-13T00:16:39;1.17;;;0.22;;
77160;SDS011;66135;0.000;0.000;2023-07-13T00:19:08;0.77;;;0.13;;
77160;SDS011;66135;0.000;0.000;2023-07-13T00:21:35;0.82;;;0.30;;
77160;SDS011;66135;0.000;0.000;2023-07-13T00:24:00;1.00;;;0.32;;
77160;SDS011;66135;0.000;0.000;2023-07-13T00:26:26;1.55;;;0.20;;
77160;SDS011;66135;0.000;0.000;2023-07-13T00:28:51;0.63;;;0.10;;
77160;SDS011;66135;0.000;0.000;2023-07-13T00:31:17;1.08;;;0.30;;
77160;SDS011;66135;0.000;0.000;2023-07-13T00:33:43;1.20;;;0.22;;
77160;SDS011;66135;0.000;0.000;2023-07-13T00:36:09;0.93;;;0.20;;
77160;SDS011;66135;0.000;0.000;2023-07-13T00:38:35;1.23;;;0.30;;
77160;SDS011;66135;0.000;0.000;2023-07-13T00:41:01;0.85;;;0.13;;
77160;SDS011;66135;0.000;0.000;2023-07-13T00:43:28;0.95;;;0.25;;
77160;SDS011;66135;0.000;0.000;2023-07-13T00:48:24;0.82;;;0.20;;
77160;SDS011;66135;0.000;0.000;2023-07-13T00:50:53;1.35;;;0.73;;
77160;SDS011;66135;0.000;0.000;2023-07-13T00:53:21;0.50;;;0.00;;
77160;SDS011;66135;0.000;0.000;2023-07-13T00:55:48;0.77;;;0.30;;
77160;SDS011;66135;0.000;0.000;2023-07-13T00:58:15;0.60;;;0.20;;
77160;SDS011;66135;0.000;0.000;2023-07-13T01:00:41;0.55;;;0.20;;
77160;SDS011;66135;0.000;0.000;2023-07-13T01:03:07;0.77;;;0.10;;
77160;SDS011;66135;0.000;0.000;2023-07-13T01:05:32;1.58;;;0.03;;
77160;SDS011;66135;0.000;0.000;2023-07-13T01:08:00;0.60;;;0.55;;
77160;SDS011;66135;0.000;0.000;2023-07-13T01:10:27;0.55;;;0.22;;
77160;SDS011;66135;0.000;0.000;2023-07-13T01:12:53;1.10;;;0.20;;
77160;SDS011;66135;0.000;0.000;2023-07-13T01:18:16;1.52;;;0.40;;
77160;SDS011;66135;0.000;0.000;2023-07-13T01:20:57;1.63;;;0.10;;
77160;SDS011;66135;0.000;0.000;2023-07-13T01:23:25;1.95;;;0.28;;
77160;SDS011;66135;0.000;0.000;2023-07-13T01:25:52;1.08;;;0.20;;
77160;SDS011;66135;0.000;0.000;2023-07-13T01:28:18;1.10;;;0.10;;
77160;SDS011;66135;0.000;0.000;2023-07-13T01:30:44;1.35;;;0.32;;
77160;SDS011;66135;0.000;0.000;2023-07-13T01:33:11;0.50;;;0.03;;
77160;SDS011;66135;0.000;0.000;2023-07-13T01:35:39;0.90;;;0.13;;
77160;SDS011;66135;0.000;0.000;2023-07-13T01:38:05;0.75;;;0.20;;
77160;SDS011;66135;0.000;0.000;2023-07-13T01:40:30;2.47;;;0.30;;
77160;SDS011;66135;0.000;0.000;2023-07-13T01:42:57;1.40;;;0.32;;
77160;SDS011;66135;0.000;0.000;2023-07-13T01:45:23;1.15;;;0.10;;
77160;SDS011;66135;0.000;0.000;2023-07-13T01:47:48;0.73;;;0.22;;
77160;SDS011;66135;0.000;0.000;2023-07-13T01:50:13;1.65;;;0.22;;
77160;SDS011;66135;0.000;0.000;2023-07-13T01:52:39;1.77;;;0.38;;
77160;SDS011;66135;0.000;0.000;2023-07-13T01:55:04;1.70;;;0.10;;
77160;SDS011;66135;0.000;0.000;2023-07-13T01:57:30;0.38;;;0.20;;
77160;SDS011;66135;0.000;0.000;2023-07-13T01:59:56;1.60;;;0.30;;
77160;SDS011;66135;0.000;0.000;2023-07-13T02:02:22;1.08;;;0.15;;
77160;SDS011;66135;0.000;0.000;2023-07-13T02:04:47;0.60;;;0.13;;
77160;SDS011;66135;0.000;0.000;2023-07-13T02:07:13;2.90;;;0.13;;
77160;SDS011;66135;0.000;0.000;2023-07-13T02:09:40;1.05;;;0.30;;
77160;SDS011;66135;0.000;0.000;2023-07-13T02:12:05;3.42;;;0.30;;
77160;SDS011;66135;0.000;0.000;2023-07-13T02:14:31;0.75;;;0.40;;
77160;SDS011;66135;0.000;0.000;2023-07-13T02:16:56;0.75;;;0.20;;
77160;SDS011;66135;0.000;0.000;2023-07-13T02:19:22;1.63;;;0.25;;
77160;SDS011;66135;0.000;0.000;2023-07-13T02:21:47;1.05;;;0.40;;
77160;SDS011;66135;0.000;0.000;2023-07-13T02:24:13;1.38;;;0.25;;
77160;SDS011;66135;0.000;0.000;2023-07-13T02:26:42;1.63;;;0.10;;
77160;SDS011;66135;0.000;0.000;2023-07-13T02:29:09;1.83;;;0.32;;
77160;SDS011;66135;0.000;0.000;2023-07-13T02:31:35;1.88;;;0.20;;
77160;SDS011;66135;0.000;0.000;2023-07-13T02:34:01;1.08;;;0.52;;
77160;SDS011;66135;0.000;0.000;2023-07-13T02:36:26;0.68;;;0.10;;
77160;SDS011;66135;0.000;0.000;2023-07-13T02:38:52;1.25;;;0.15;;
77160;SDS011;66135;0.000;0.000;2023-07-13T02:41:18;1.35;;;0.20;;
77160;SDS011;66135;0.000;0.000;2023-07-13T02:43:43;1.73;;;0.43;;
77160;SDS011;66135;0.000;0.000;2023-07-13T02:46:09;1.05;;;0.08;;
77160;SDS011;66135;0.000;0.000;2023-07-13T02:48:34;2.22;;;0.20;;
77160;SDS011;66135;0.000;0.000;2023-07-13T02:51:01;1.75;;;0.47;;
77160;SDS011;66135;0.000;0.000;2023-07-13T02:53:27;1.08;;;0.32;;
77160;SDS011;66135;0.000;0.000;2023-07-13T02:55:52;0.82;;;0.25;;
77160;SDS011;66135;0.000;0.000;2023-07-13T02:58:17;1.60;;;0.20;;
77160;SDS011;66135;0.000;0.000;2023-07-13T03:00:44;1.45;;;0.25;;
77160;SDS011;66135;0.000;0.000;2023-07-13T03:03:11;1.30;;;0.20;;
77160;SDS011;66135;0.000;0.000;2023-07-13T03:05:40;1.02;;;0.10;;
77160;SDS011;66135;0.000;0.000;2023-07-13T03:08:07;0.45;;;0.20;;
77160;SDS011;66135;0.000;0.000;2023-07-13T03:10:34;0.70;;;0.17;;
77160;SDS011;66135;0.000;0.000;2023-07-13T03:13:00;1.10;;;0.38;;
77160;SDS011;66135;0.000;0.000;2023-07-13T03:15:26;1.48;;;0.20;;
77160;SDS011;66135;0.000;0.000;2023-07-13T03:17:52;0.82;;;0.20;;
77160;SDS011;66135;0.000;0.000;2023-07-13T03:20:17;1.73;;;0.38;;
77160;SDS011;66135;0.000;0.000;2023-07-13T03:22:43;1.95;;;0.10;;
77160;SDS011;66135;0.000;0.000;2023-07-13T03:25:09;0.55;;;0.13;;
77160;SDS011;66135;0.000;0.000;2023-07-13T03:27:34;0.70;;;0.20;;
77160;SDS011;66135;0.000;0.000;2023-07-13T03:29:59;2.83;;;0.30;;
77160;SDS011;66135;0.000;0.000;2023-07-13T03:32:25;1.15;;;0.32;;
77160;SDS011;66135;0.000;0.000;2023-07-13T03:34:51;1.67;;;0.13;;
77160;SDS011;66135;0.000;0.000;2023-07-13T03:37:16;0.60;;;0.20;;
77160;SDS011;66135;0.000;0.000;2023-07-13T03:39:42;1.52;;;0.28;;
77160;SDS011;66135;0.000;0.000;2023-07-13T03:42:07;2.70;;;0.30;;
77160;SDS011;66135;0.000;0.000;2023-07-13T03:44:33;0.75;;;0.40;;
77160;SDS011;66135;0.000;0.000;2023-07-13T03:46:58;1.33;;;0.68;;
77160;SDS011;66135;0.000;0.000;2023-07-13T03:49:24;0.60;;;0.10;;
77160;SDS011;66135;0.000;0.000;2023-07-13T03:51:49;1.17;;;0.25;;
77160;SDS011;66135;0.000;0.000;2023-07-13T03:54:14;1.33;;;0.22;;
77160;SDS011;66135;0.000;0.000;2023-07-13T03:56:40;1.02;;;0.10;;
77160;SDS011;66135;0.000;0.000;2023-07-13T03:59:05;1.27;;;0.32;;
77160;SDS011;66135;0.000;0.000;2023-07-13T04:01:31;1.33;;;0.35;;
77160;SDS011;66135;0.000;0.000;2023-07-13T04:03:56;1.50;;;0.40;;
77160;SDS011;66135;0.000;0.000;2023-07-13T04:06:23;2.08;;;0.20;;
77160;SDS011;66135;0.000;0.000;2023-07-13T04:08:52;1.02;;;0.10;;
77160;SDS011;66135;0.000;0.000;2023-07-13T04:11:22;1.00;;;0.03;;
77160;SDS011;66135;0.000;0.000;2023-07-13T04:13:49;1.52;;;0.25;;
77160;SDS011;66135;0.000;0.000;2023-07-13T04:16:15;0.77;;;0.10;;
77160;SDS011;66135;0.000;0.000;2023-07-13T04:18:41;2.00;;;0.20;;
77160;SDS011;66135;0.000;0.000;2023-07-13T04:21:07;1.88;;;0.22;;
77160;SDS011;66135;0.000;0.000;2023-07-13T04:23:34;1.30;;;0.52;;
77160;SDS011;66135;0.000;0.000;2023-07-13T04:26:00;1.00;;;0.20;;
77160;SDS011;66135;0.000;0.000;2023-07-13T04:28:26;2.20;;;0.10;;
77160;SDS011;66135;0.000;0.000;2023-07-13T04:30:52;1.30;;;0.22;;
77160;SDS011;66135;0.000;0.000;2023-07-13T04:33:18;0.93;;;0.28;;
77160;SDS011;66135;0.000;0.000;2023-07-13T04:35:50;2.85;;;0.50;;
77160;SDS011;66135;0.000;0.000;2023-07-13T04:38:21;1.77;;;0.30;;
77160;SDS011;66135;0.000;0.000;2023-07-13T04:40:51;1.30;;;0.40;;
77160;SDS011;66135;0.000;0.000;2023-07-13T04:43:17;1.63;;;0.28;;
77160;SDS011;66135;0.000;0.000;2023-07-13T04:45:42;1.02;;;0.50;;
77160;SDS011;66135;0.000;0.000;2023-07-13T04:48:08;1.73;;;0.43;;
77160;SDS011;66135;0.000;0.000;2023-07-13T04:50:35;1.90;;;0.88;;
77160;SDS011;66135;0.000;0.000;2023-07-13T04:53:02;0.73;;;0.10;;
77160;SDS011;66135;0.000;0.000;2023-07-13T04:55:29;1.42;;;0.75;;
77160;SDS011;66135;0.000;0.000;2023-07-13T04:57:55;1.05;;;0.20;;
77160;SDS011;66135;0.000;0.000;2023-07-13T05:00:21;3.13;;;0.40;;
77160;SDS011;66135;0.000;0.000;2023-07-13T05:02:46;1.25;;;0.17;;
77160;SDS011;66135;0.000;0.000;2023-07-13T05:05:12;2.13;;;0.40;;
77160;SDS011;66135;0.000;0.000;2023-07-13T05:07:38;1.25;;;0.60;;
77160;SDS011;66135;0.000;0.000;2023-07-13T05:10:03;1.63;;;0.32;;
77160;SDS011;66135;0.000;0.000;2023-07-13T05:12:29;1.65;;;0.38;;
77160;SDS011;66135;0.000;0.000;2023-07-13T05:14:55;1.70;;;0.52;;
77160;SDS011;66135;0.000;0.000;2023-07-13T05:17:20;2.17;;;0.20;;
77160;SDS011;66135;0.000;0.000;2023-07-13T05:19:46;1.20;;;0.20;;
77160;SDS011;66135;0.000;0.000;2023-07-13T05:22:11;1.08;;;0.22;;
77160;SDS011;66135;0.000;0.000;2023-07-13T05:24:37;1.95;;;0.20;;
77160;SDS011;66135;0.000;0.000;2023-07-13T05:27:02;0.75;;;0.28;;
77160;SDS011;66135;0.000;0.000;2023-07-13T05:29:28;1.10;;;0.30;;
77160;SDS011;66135;0.000;0.000;2023-07-13T05:31:53;0.60;;;0.40;;
77160;SDS011;66135;0.000;0.000;2023-07-13T05:34:19;1.48;;;0.30;;
77160;SDS011;66135;0.000;0.000;2023-07-13T05:36:44;3.38;;;0.68;;
77160;SDS011;66135;0.000;0.000;2023-07-13T05:39:10;0.95;;;0.32;;
77160;SDS011;66135;0.000;0.000;2023-07-13T05:41:36;1.48;;;0.43;;
77160;SDS011;66135;0.000;0.000;2023-07-13T05:44:02;1.63;;;0.40;;
77160;SDS011;66135;0.000;0.000;2023-07-13T05:46:28;1.98;;;0.52;;
77160;SDS011;66135;0.000;0.000;2023-07-13T05:48:53;1.55;;;0.40;;
77160;SDS011;66135;0.000;0.000;2023-07-13T05:51:19;2.53;;;0.47;;
77160;SDS011;66135;0.000;0.000;2023-07-13T05:53:44;2.55;;;0.30;;
77160;SDS011;66135;0.000;0.000;2023-07-13T05:56:10;1.85;;;0.28;;
77160;SDS011;66135;0.000;0.000;2023-07-13T05:58:36;2.08;;;0.70;;
77160;SDS011;66135;0.000;0.000;2023-07-13T06:01:03;1.00;;;0.40;;
77160;SDS011;66135;0.000;0.000;2023-07-13T06:03:30;2.70;;;0.40;;
77160;SDS011;66135;0.000;0.000;2023-07-13T06:05:56;2.10;;;0.65;;
77160;SDS011;66135;0.000;0.000;2023-07-13T06:08:22;2.03;;;0.38;;
77160;SDS011;66135;0.000;0.000;2023-07-13T06:10:47;1.42;;;0.40;;
77160;SDS011;66135;0.000;0.000;2023-07-13T06:13:12;1.83;;;0.65;;
77160;SDS011;66135;0.000;0.000;2023-07-13T06:15:38;1.55;;;0.73;;
77160;SDS011;66135;0.000;0.000;2023-07-13T06:18:03;1.63;;;0.70;;
77160;SDS011;66135;0.000;0.000;2023-07-13T06:20:30;2.03;;;0.85;;
77160;SDS011;66135;0.000;0.000;2023-07-13T06:22:58;1.65;;;0.57;;
77160;SDS011;66135;0.000;0.000;2023-07-13T06:25:23;1.98;;;0.70;;
77160;SDS011;66135;0.000;0.000;2023-07-13T06:27:49;2.33;;;0.68;;
77160;SDS011;66135;0.000;0.000;2023-07-13T06:30:14;2.45;;;0.95;;
77160;SDS011;66135;0.000;0.000;2023-07-13T06:32:39;1.52;;;0.55;;
77160;SDS011;66135;0.000;0.000;2023-07-13T06:35:05;2.67;;;0.70;;
77160;SDS011;66135;0.000;0.000;2023-07-13T06:37:30;1.52;;;0.40;;
77160;SDS011;66135;0.000;0.000;2023-07-13T06:39:56;1.73;;;0.75;;
77160;SDS011;66135;0.000;0.000;2023-07-13T06:42:21;1.55;;;0.68;;
77160;SDS011;66135;0.000;0.000;2023-07-13T06:44:47;2.30;;;0.57;;
77160;SDS011;66135;0.000;0.000;2023-07-13T06:47:12;3.03;;;0.47;;
77160;SDS011;66135;0.000;0.000;2023-07-13T06:49:37;1.90;;;0.55;;
77160;SDS011;66135;0.000;0.000;2023-07-13T06:52:03;2.45;;;0.73;;
77160;SDS011;66135;0.000;0.000;2023-07-13T06:54:29;1.63;;;0.38;;
77160;SDS011;66135;0.000;0.000;2023-07-13T06:56:54;2.33;;;0.70;;
77160;SDS011;66135;0.000;0.000;2023-07-13T06:59:20;3.45;;;0.40;;
77160;SDS011;66135;0.000;0.000;2023-07-13T07:01:45;2.63;;;0.50;;
77160;SDS011;66135;0.000;0.000;2023-07-13T07:04:11;2.75;;;0.77;;
77160;SDS011;66135;0.000;0.000;2023-07-13T07:06:36;2.53;;;0.57;;
77160;SDS011;66135;0.000;0.000;2023-07-13T07:09:02;1.67;;;0.60;;
77160;SDS011;66135;0.000;0.000;2023-07-13T07:11:27;2.22;;;0.60;;
77160;SDS011;66135;0.000;0.000;2023-07-13T07:13:53;4.13;;;0.52;;
77160;SDS011;66135;0.000;0.000;2023-07-13T07:16:19;2.70;;;0.80;;
77160;SDS011;66135;0.000;0.000;2023-07-13T07:18:45;2.28;;;0.77;;
77160;SDS011;66135;0.000;0.000;2023-07-13T07:21:11;2.28;;;0.70;;
77160;SDS011;66135;0.000;0.000;2023-07-13T07:23:36;2.35;;;0.73;;
77160;SDS011;66135;0.000;0.000;2023-07-13T07:26:02;2.40;;;0.60;;
77160;SDS011;66135;0.000;0.000;2023-07-13T07:28:28;2.13;;;0.60;;
77160;SDS011;66135;0.000;0.000;2023-07-13T07:30:54;2.22;;;0.93;;
77160;SDS011;66135;0.000;0.000;2023-07-13T07:33:21;1.20;;;0.47;;
77160;SDS011;66135;0.000;0.000;2023-07-13T07:35:47;2.25;;;1.08;;
77160;SDS011;66135;0.000;0.000;2023-07-13T07:38:13;1.30;;;0.40;;
77160;SDS011;66135;0.000;0.000;2023-07-13T07:40:39;2.13;;;0.60;;
77160;SDS011;66135;0.000;0.000;2023-07-13T07:43:06;1.63;;;0.73;;
77160;SDS011;66135;0.000;0.000;2023-07-13T07:45:32;3.45;;;1.02;;
77160;SDS011;66135;0.000;0.000;2023-07-13T07:47:58;2.67;;;0.75;;
77160;SDS011;66135;0.000;0.000;2023-07-13T07:50:27;2.67;;;1.15;;
77160;SDS011;66135;0.000;0.000;2023-07-13T07:52:53;2.10;;;0.43;;
77160;SDS011;66135;0.000;0.000;2023-07-13T07:55:21;2.20;;;0.70;;
77160;SDS011;66135;0.000;0.000;2023-07-13T07:57:47;2.03;;;0.70;;
77160;SDS011;66135;0.000;0.000;2023-07-13T08:00:12;2.22;;;1.08;;
77160;SDS011;66135;0.000;0.000;2023-07-13T08:02:38;2.95;;;1.13;;
77160;SDS011;66135;0.000;0.000;2023-07-13T08:05:06;3.60;;;1.10;;
77160;SDS011;66135;0.000;0.000;2023-07-13T08:07:32;2.55;;;0.80;;
77160;SDS011;66135;0.000;0.000;2023-07-13T08:09:57;1.90;;;1.05;;
77160;SDS011;66135;0.000;0.000;2023-07-13T08:12:23;2.58;;;0.63;;
77160;SDS011;66135;0.000;0.000;2023-07-13T08:14:51;2.50;;;1.00;;
77160;SDS011;66135;0.000;0.000;2023-07-13T08:17:22;2.25;;;0.82;;
77160;SDS011;66135;0.000;0.000;2023-07-13T08:19:48;2.65;;;1.08;;
77160;SDS011;66135;0.000;0.000;2023-07-13T08:22:14;3.17;;;0.82;;
77160;SDS011;66135;0.000;0.000;2023-07-13T08:24:40;1.85;;;0.90;;
77160;SDS011;66135;0.000;0.000;2023-07-13T08:27:07;4.22;;;1.10;;
77160;SDS011;66135;0.000;0.000;2023-07-13T08:29:33;2.80;;;1.15;;
77160;SDS011;66135;0.000;0.000;2023-07-13T08:31:58;1.58;;;0.57;;
77160;SDS011;66135;0.000;0.000;2023-07-13T08:34:24;1.98;;;1.13;;
77160;SDS011;66135;0.000;0.000;2023-07-13T08:36:49;2.85;;;1.02;;
77160;SDS011;66135;0.000;0.000;2023-07-13T08:39:14;3.38;;;1.02;;
77160;SDS011;66135;0.000;0.000;2023-07-13T08:41:40;2.13;;;0.75;;
77160;SDS011;66135;0.000;0.000;2023-07-13T08:44:06;2.30;;;0.82;;
77160;SDS011;66135;0.000;0.000;2023-07-13T08:46:41;2.05;;;1.15;;
77160;SDS011;66135;0.000;0.000;2023-07-13T08:49:16;2.28;;;1.15;;
77160;SDS011;66135;0.000;0.000;2023-07-13T08:51:52;2.38;;;0.90;;
77160;SDS011;66135;0.000;0.000;2023-07-13T08:56:57;1.75;;;0.90;;
77160;SDS011;66135;0.000;0.000;2023-07-13T08:59:26;3.92;;;1.10;;
77160;SDS011;66135;0.000;0.000;2023-07-13T09:01:59;2.78;;;1.10;;
77160;SDS011;66135;0.000;0.000;2023-07-13T09:05:08;1.70;;;1.00;;
77160;SDS011;66135;0.000;0.000;2023-07-13T09:15:37;2.60;;;1.40;;
77160;SDS011;66135;0.000;0.000;2023-07-13T09:21:14;2.75;;;1.05;;
77160;SDS011;66135;0.000;0.000;2023-07-13T09:23:43;2.38;;;0.82;;
77160;SDS011;66135;0.000;0.000;2023-07-13T09:26:11;2.13;;;1.10;;
77160;SDS011;66135;0.000;0.000;2023-07-13T09:28:42;2.38;;;1.17;;
77160;SDS011;66135;0.000;0.000;2023-07-13T09:31:20;2.33;;;0.85;;
77160;SDS011;66135;0.000;0.000;2023-07-13T09:33:58;2.17;;;1.17;;
77160;SDS011;66135;0.000;0.000;2023-07-13T09:36:26;1.98;;;0.75;;
77160;SDS011;66135;0.000;0.000;2023-07-13T09:39:03;2.90;;;1.00;;
77160;SDS011;66135;0.000;0.000;2023-07-13T09:44:31;2.95;;;1.15;;
77160;SDS011;66135;0.000;0.000;2023-07-13T09:46:57;4.18;;;1.63;;
77160;SDS011;66135;0.000;0.000;2023-07-13T09:49:23;2.15;;;0.95;;
77160;SDS011;66135;0.000;0.000;2023-07-13T09:51:50;2.88;;;1.05;;
77160;SDS011;66135;0.000;0.000;2023-07-13T09:54:25;3.22;;;1.17;;
77160;SDS011;66135;0.000;0.000;2023-07-13T09:57:00;1.67;;;0.70;;
77160;SDS011;66135;0.000;0.000;2023-07-13T09:59:37;2.45;;;1.65;;
77160;SDS011;66135;0.000;0.000;2023-07-13T10:02:26;2.33;;;1.65;;
77160;SDS011;66135;0.000;0.000;2023-07-13T10:05:02;3.75;;;1.45;;
77160;SDS011;66135;0.000;0.000;2023-07-13T10:07:29;2.28;;;1.05;;
77160;SDS011;66135;0.000;0.000;2023-07-13T10:09:57;2.90;;;1.73;;
77160;SDS011;66135;0.000;0.000;2023-07-13T10:12:26;2.38;;;0.85;;
77160;SDS011;66135;0.000;0.000;2023-07-13T10:14:56;2.65;;;1.73;;
77160;SDS011;66135;0.000;0.000;2023-07-13T10:17:26;3.75;;;0.88;;
77160;SDS011;66135;0.000;0.000;2023-07-13T10:22:50;1.88;;;0.90;;
77160;SDS011;66135;0.000;0.000;2023-07-13T10:25:15;1.50;;;0.80;;
77160;SDS011;66135;0.000;0.000;2023-07-13T10:27:44;1.33;;;0.70;;
77160;SDS011;66135;0.000;0.000;2023-07-13T10:30:18;1.90;;;0.63;;
77160;SDS011;66135;0.000;0.000;2023-07-13T10:32:48;2.47;;;1.08;;
77160;SDS011;66135;0.000;0.000;2023-07-13T10:35:15;1.77;;;0.80;;
77160;SDS011;66135;0.000;0.000;2023-07-13T10:38:06;1.85;;;1.00;;
77160;SDS011;66135;0.000;0.000;2023-07-13T10:40:48;2.20;;;1.20;;
77160;SDS011;66135;0.000;0.000;2023-07-13T10:43:33;2.42;;;1.00;;
77160;SDS011;66135;0.000;0.000;2023-07-13T10:46:03;1.58;;;0.85;;
77160;SDS011;66135;0.000;0.000;2023-07-13T10:48:30;1.40;;;0.45;;
77160;SDS011;66135;0.000;0.000;2023-07-13T10:50:59;1.08;;;0.65;;
77160;SDS011;66135;0.000;0.000;2023-07-13T10:53:30;1.95;;;0.80;;
77160;SDS011;66135;0.000;0.000;2023-07-13T10:56:02;1.45;;;0.70;;
77160;SDS011;66135;0.000;0.000;2023-07-13T10:58:43;2.78;;;1.17;;
77160;SDS011;66135;0.000;0.000;2023-07-13T11:01:12;2.20;;;0.98;;
77160;SDS011;66135;0.000;0.000;2023-07-13T11:06:13;2.38;;;0.95;;
77160;SDS011;66135;0.000;0.000;2023-07-13T11:21:26;2.58;;;0.70;;
77160;SDS011;66135;0.000;0.000;2023-07-13T11:24:12;2.17;;;1.02;;
77160;SDS011;66135;0.000;0.000;2023-07-13T11:29:54;1.17;;;0.60;;
77160;SDS011;66135;0.000;0.000;2023-07-13T11:32:19;1.67;;;0.73;;
77160;SDS011;66135;0.000;0.000;2023-07-13T11:34:48;1.33;;;0.90;;
77160;SDS011;66135;0.000;0.000;2023-07-13T11:37:16;1.73;;;1.02;;
77160;SDS011;66135;0.000;0.000;2023-07-13T11:39:44;1.98;;;0.88;;
77160;SDS011;66135;0.000;0.000;2023-07-13T11:42:15;1.98;;;0.63;;
77160;SDS011;66135;0.000;0.000;2023-07-13T11:44:43;1.63;;;0.65;;
77160;SDS011;66135;0.000;0.000;2023-07-13T11:47:11;2.70;;;0.93;;
77160;SDS011;66135;0.000;0.000;2023-07-13T11:49:47;1.83;;;0.70;;
77160;SDS011;66135;0.000;0.000;2023-07-13T11:52:18;1.88;;;0.55;;
77160;SDS011;66135;0.000;0.000;2023-07-13T11:54:56;2.50;;;0.70;;
77160;SDS011;66135;0.000;0.000;2023-07-13T11:57:26;2.35;;;0.73;;
77160;SDS011;66135;0.000;0.000;2023-07-13T11:59:54;3.55;;;1.50;;
77160;SDS011;66135;0.000;0.000;2023-07-13T12:02:26;1.55;;;0.68;;
77160;SDS011;66135;0.000;0.000;2023-07-13T12:05:03;1.48;;;0.88;;
77160;SDS011;66135;0.000;0.000;2023-07-13T12:07:33;1.05;;;0.88;;
77160;SDS011;66135;0.000;0.000;2023-07-13T12:10:03;1.48;;;0.68;;
77160;SDS011;66135;0.000;0.000;2023-07-13T12:12:29;1.40;;;0.47;;
77160;SDS011;66135;0.000;0.000;2023-07-13T12:14:55;1.73;;;0.80;;
77160;SDS011;66135;0.000;0.000;2023-07-13T12:17:22;2.10;;;0.82;;
77160;SDS011;66135;0.000;0.000;2023-07-13T12:19:49;1.60;;;0.60;;
77160;SDS011;66135;0.000;0.000;2023-07-13T12:22:17;1.83;;;0.98;;
77160;SDS011;66135;0.000;0.000;2023-07-13T12:24:44;1.10;;;0.57;;
77160;SDS011;66135;0.000;0.000;2023-07-13T12:27:21;1.15;;;0.52;;
77160;SDS011;66135;0.000;0.000;2023-07-13T12:29:53;3.35;;;0.80;;
77160;SDS011;66135;0.000;0.000;2023-07-13T12:32:24;1.48;;;0.85;;
77160;SDS011;66135;0.000;0.000;2023-07-13T12:34:55;1.60;;;1.02;;
77160;SDS011;66135;0.000;0.000;2023-07-13T12:37:43;0.77;;;0.40;;
77160;SDS011;66135;0.000;0.000;2023-07-13T12:40:17;1.05;;;0.50;;
77160;SDS011;66135;0.000;0.000;2023-07-13T12:42:46;1.30;;;0.38;;
77160;SDS011;66135;0.000;0.000;2023-07-13T12:45:23;2.42;;;0.77;;
77160;SDS011;66135;0.000;0.000;2023-07-13T12:47:56;1.63;;;0.90;;
77160;SDS011;66135;0.000;0.000;2023-07-13T12:50:29;3.00;;;1.25;;
77160;SDS011;66135;0.000;0.000;2023-07-13T12:52:59;2.15;;;0.82;;
77160;SDS011;66135;0.000;0.000;2023-07-13T12:55:44;1.83;;;0.60;;
77160;SDS011;66135;0.000;0.000;2023-07-13T12:58:17;0.98;;;0.52;;
77160;SDS011;66135;0.000;0.000;2023-07-13T13:00:49;1.60;;;0.80;;
77160;SDS011;66135;0.000;0.000;2023-07-13T13:03:51;1.20;;;0.45;;
77160;SDS011;66135;0.000;0.000;2023-07-13T13:08:43;1.30;;;1.02;;
77160;SDS011;66135;0.000;0.000;2023-07-13T13:11:10;1.38;;;0.60;;
77160;SDS011;66135;0.000;0.000;2023-07-13T13:13:36;1.20;;;0.77;;
77160;SDS011;66135;0.000;0.000;2023-07-13T13:16:23;2.15;;;0.63;;
77160;SDS011;66135;0.000;0.000;2023-07-13T13:19:21;2.50;;;0.90;;
77160;SDS011;66135;0.000;0.000;2023-07-13T13:21:50;2.05;;;0.90;;
77160;SDS011;66135;0.000;0.000;2023-07-13T13:24:18;1.58;;;0.60;;
77160;SDS011;66135;0.000;0.000;2023-07-13T13:26:48;1.95;;;0.85;;
77160;SDS011;66135;0.000;0.000;2023-07-13T13:29:16;1.85;;;0.80;;
77160;SDS011;66135;0.000;0.000;2023-07-13T13:31:44;2.55;;;1.40;;
77160;SDS011;66135;0.000;0.000;2023-07-13T13:34:10;1.73;;;1.05;;
77160;SDS011;66135;0.000;0.000;2023-07-13T13:36:39;2.85;;;0.93;;
77160;SDS011;66135;0.000;0.000;2023-07-13T13:39:08;1.02;;;0.70;;
77160;SDS011;66135;0.000;0.000;2023-07-13T13:41:45;2.80;;;0.82;;
77160;SDS011;66135;0.000;0.000;2023-07-13T13:44:10;1.80;;;0.50;;
77160;SDS011;66135;0.000;0.000;2023-07-13T13:46:42;2.63;;;0.70;;
77160;SDS011;66135;0.000;0.000;2023-07-13T13:49:16;1.52;;;0.93;;
77160;SDS011;66135;0.000;0.000;2023-07-13T13:51:44;1.70;;;0.52;;
77160;SDS011;66135;0.000;0.000;2023-07-13T13:54:13;1.17;;;0.57;;
77160;SDS011;66135;0.000;0.000;2023-07-13T13:56:41;1.52;;;0.73;;
77160;SDS011;66135;0.000;0.000;2023-07-13T13:59:08;1.48;;;0.80;;
77160;SDS011;66135;0.000;0.000;2023-07-13T14:01:34;2.08;;;0.73;;
77160;SDS011;66135;0.000;0.000;2023-07-13T14:04:00;1.05;;;0.55;;
77160;SDS011;66135;0.000;0.000;2023-07-13T14:06:25;1.92;;;0.82;;
77160;SDS011;66135;0.000;0.000;2023-07-13T14:08:50;2.10;;;0.70;;
77160;SDS011;66135;0.000;0.000;2023-07-13T14:11:16;1.83;;;0.77;;
77160;SDS011;66135;0.000;0.000;2023-07-13T14:13:45;0.63;;;0.57;;
77160;SDS011;66135;0.000;0.000;2023-07-13T14:16:15;1.60;;;0.60;;
77160;SDS011;66135;0.000;0.000;2023-07-13T14:18:43;2.08;;;0.63;;
77160;SDS011;66135;0.000;0.000;2023-07-13T14:21:11;1.10;;;0.90;;
77160;SDS011;66135;0.000;0.000;2023-07-13T14:23:40;1.25;;;0.47;;
77160;SDS011;66135;0.000;0.000;2023-07-13T14:26:28;1.33;;;0.60;;
77160;SDS011;66135;0.000;0.000;2023-07-13T14:28:53;1.63;;;0.93;;
77160;SDS011;66135;0.000;0.000;2023-07-13T14:31:21;1.38;;;0.65;;
77160;SDS011;66135;0.000;0.000;2023-07-13T14:33:47;1.15;;;0.60;;
77160;SDS011;66135;0.000;0.000;2023-07-13T14:36:40;0.95;;;0.30;;
77160;SDS011;66135;0.000;0.000;2023-07-13T14:39:05;1.30;;;0.90;;
77160;SDS011;66135;0.000;0.000;2023-07-13T14:41:37;1.25;;;0.70;;
77160;SDS011;66135;0.000;0.000;2023-07-13T14:44:15;1.77;;;0.75;;
77160;SDS011;66135;0.000;0.000;2023-07-13T14:46:42;1.90;;;0.52;;
77160;SDS011;66135;0.000;0.000;2023-07-13T14:51:48;0.77;;;0.30;;
77160;SDS011;66135;0.000;0.000;2023-07-13T14:54:14;1.23;;;0.77;;
77160;SDS011;66135;0.000;0.000;2023-07-13T14:56:39;1.55;;;0.60;;
77160;SDS011;66135;0.000;0.000;2023-07-13T14:59:05;1.75;;;0.93;;
77160;SDS011;66135;0.000;0.000;2023-07-13T15:01:32;1.05;;;0.75;;
77160;SDS011;66135;0.000;0.000;2023-07-13T15:03:59;1.60;;;0.52;;
77160;SDS011;66135;0.000;0.000;2023-07-13T15:06:25;0.90;;;0.60;;
77160;SDS011;66135;0.000;0.000;2023-07-13T15:08:50;1.88;;;0.70;;
77160;SDS011;66135;0.000;0.000;2023-07-13T15:11:16;1.10;;;0.77;;
77160;SDS011;66135;0.000;0.000;2023-07-13T15:13:42;1.90;;;0.65;;
77160;SDS011;66135;0.000;0.000;2023-07-13T15:16:14;0.98;;;0.52;;
77160;SDS011;66135;0.000;0.000;2023-07-13T15:18:46;1.30;;;0.70;;
77160;SDS011;66135;0.000;0.000;2023-07-13T15:21:13;1.52;;;0.50;;
77160;SDS011;66135;0.000;0.000;2023-07-13T15:23:44;1.40;;;0.80;;
77160;SDS011;66135;0.000;0.000;2023-07-13T15:26:13;1.25;;;0.40;;
77160;SDS011;66135;0.000;0.000;2023-07-13T15:28:40;1.77;;;0.68;;
77160;SDS011;66135;0.000;0.000;2023-07-13T15:31:26;2.22;;;1.05;;
77160;SDS011;66135;0.000;0.000;2023-07-13T15:33:54;1.25;;;1.13;;
77160;SDS011;66135;0.000;0.000;2023-07-13T15:36:22;1.33;;;0.80;;
77160;SDS011;66135;0.000;0.000;2023-07-13T15:38:51;1.00;;;0.70;;
77160;SDS011;66135;0.000;0.000;2023-07-13T15:43:45;1.05;;;0.80;;
77160;SDS011;66135;0.000;0.000;2023-07-13T15:46:11;0.95;;;0.70;;
77160;SDS011;66135;0.000;0.000;2023-07-13T15:48:37;0.82;;;0.30;;
77160;SDS011;66135;0.000;0.000;2023-07-13T15:51:02;1.38;;;0.40;;
77160;SDS011;66135;0.000;0.000;2023-07-13T15:53:30;1.00;;;0.80;;
77160;SDS011;66135;0.000;0.000;2023-07-13T15:55:58;1.20;;;0.50;;
77160;SDS011;66135;0.000;0.000;2023-07-13T15:58:24;1.50;;;0.60;;